King of Scandinavia — OVOL2 — position and weather

sailwx.info

Track history (hours):
 
Tides and Currents Weather Stations Pressure Air Temp Water Temp Dewpoint Dewpoint Depression Visibility Wind Speed Wind Dir Waves Ship Positions

King of Scandinavia

Ship's website: http://www.dfds.co.uk/DSW/EN/OnBoard/na/KING.htm

Last reported at 2015-May-28 06:32 UTC. Time now 2015-May-28 14:15 UTC.
Position N 54°50' W 000°54'.

Length 166 m; beam 27.6 m; draft 6.2 m.

Type: Passenger vessel. MMSI: 220449000.

Date/timePositionNaut miles runAvg speedWind from/ knotsBaromVisibWave heightAir tempDewpointWater temp
2015-May-28 06:32N 54°50' W 000°54'1918.5
2015-May-28 05:29N 54°40' W 000°27'1718.6
2015-May-28 04:34N 54°30' W 000°02'1918.7
2015-May-28 03:34N 54°20' E 000°25'1818.2
2015-May-28 02:33N 54°10' E 000°51'15715.7
2015-May-27 16:33N 52°34' E 004°19'1211.5
2015-May-27 15:33N 52°28' E 004°35'0 0.0
2015-May-27 14:32N 52°28' E 004°35'0 0.0
2015-May-27 13:32N 52°28' E 004°35'0 0.0
2015-May-27 12:29N 52°28' E 004°35'0 0.0
2015-May-27 11:32N 52°28' E 004°35'0 0.0
2015-May-27 10:29N 52°28' E 004°35'0 0.0
2015-May-27 09:26N 52°28' E 004°35'0 0.0
2015-May-27 08:32N 52°28' E 004°35'0 0.1
2015-May-27 07:34N 52°28' E 004°35'1313.0
2015-May-27 06:32N 52°36' E 004°17'237208.6
2015-May-27 05:23N 54°55' W 001°08'8010.2
2015-May-26 21:33N 54°11' E 000°47'1817.9
2015-May-26 20:33N 54°21' E 000°21'1817.8
2015-May-26 19:33N 54°31' W 000°04'1717.4
2015-May-26 18:33N 54°40' W 000°29'1717.3
2015-May-26 17:33N 54°50' W 000°54'1717.5
2015-May-26 16:33N 54°59' W 001°20'5 0.5
2015-May-26 07:13N 54°57' W 001°12'1217.3
2015-May-26 06:31N 54°50' W 000°54'1817.7
2015-May-26 05:30N 54°41' W 000°29'1718.1
2015-May-26 04:33N 54°31' W 000°04'1818.4
2015-May-26 03:33N 54°21' E 000°22'1818.2
2015-May-26 02:33N 54°11' E 000°49'14015.5
2015-May-25 17:33N 52°47' E 003°57'1414.5
2015-May-25 16:33N 52°38' E 004°14'1414.3
2015-May-25 15:34N 52°28' E 004°32'2 1.9
2015-May-25 14:25N 52°28' E 004°35'0 0.0
2015-May-25 13:31N 52°28' E 004°35'0 0.0
2015-May-25 12:28N 52°28' E 004°35'0 0.0
2015-May-25 11:28N 52°28' E 004°35'0 0.0
2015-May-25 10:28N 52°28' E 004°35'0 0.0
2015-May-25 09:28N 52°28' E 004°35'0 0.0
2015-May-25 08:28N 52°28' E 004°35'0 0.1
2015-May-25 07:33N 52°28' E 004°35'1010.1
2015-May-25 06:33N 52°33' E 004°21'1110.7
2015-May-25 05:34N 52°41' E 004°08'1413.8
2015-May-25 04:33N 52°50' E 003°51'1515.0
2015-May-25 03:33N 52°59' E 003°32'1817.3
2015-May-25 02:32N 53°11' E 003°10'10218.8
2015-May-24 21:06N 54°10' E 000°50'1018.8
2015-May-24 20:33N 54°16' E 000°35'1918.8
2015-May-24 19:34N 54°26' E 000°08'1918.7
2015-May-24 18:33N 54°36' W 000°19'1918.5
2015-May-24 17:33N 54°46' W 000°46'1818.2
2015-May-24 16:32N 54°57' W 001°13'7 1.7
2015-May-24 12:07N 55°01' W 001°22'10 1.7
2015-May-24 06:33N 54°56' W 001°08'1515.3
2015-May-24 05:33N 54°47' W 000°47'1717.4
2015-May-24 04:33N 54°37' W 000°22'1717.1
2015-May-24 03:33N 54°28' E 000°03'2019.6
2015-May-24 02:33N 54°18' E 000°31'15319.1
2015-May-23 18:33N 52°47' E 003°59'1919.5
2015-May-23 17:33N 52°33' E 004°22'10 9.8
2015-May-23 16:33N 52°28' E 004°35'0 0.0
2015-May-23 15:33N 52°28' E 004°35'0 0.0
2015-May-23 14:31N 52°28' E 004°35'0 0.0
2015-May-23 13:31N 52°28' E 004°35'0 0.0
2015-May-23 12:31N 52°28' E 004°35'0 0.0
2015-May-23 11:31N 52°28' E 004°35'0 0.0
2015-May-23 10:31N 52°28' E 004°35'0 0.0
2015-May-23 09:31N 52°28' E 004°35'0 0.0
2015-May-23 08:31N 52°28' E 004°35'0 0.0
2015-May-23 07:33N 52°28' E 004°35'1111.3
2015-May-23 06:33N 52°34' E 004°20'1414.4
2015-May-23 05:33N 52°44' E 004°02'1515.1
2015-May-23 04:32N 52°54' E 003°43'13017.6
2015-May-22 21:11N 54°11' E 000°48'1218.7
2015-May-22 20:33N 54°18' E 000°31'1918.9
2015-May-22 19:33N 54°28' E 000°04'1919.5
2015-May-22 18:33N 54°38' W 000°25'1919.4
2015-May-22 17:33N 54°49' W 000°53'1918.9
2015-May-22 16:32N 54°60' W 001°21'15 1.5
2015-May-22 06:33N 54°52' W 000°58'1414.3
2015-May-22 05:33N 54°45' W 000°36'1514.7
2015-May-22 04:33N 54°36' W 000°16'1717.3
2015-May-22 03:33N 54°26' E 000°08'1818.0
2015-May-22 02:33N 54°16' E 000°34'13316.6
2015-May-21 18:32N 52°58' E 003°37'1515.7
2015-May-21 17:33N 52°48' E 003°55'1615.6
2015-May-21 16:33N 52°38' E 004°14'1515.1
2015-May-21 15:34N 52°28' E 004°33'1 1.1
2015-May-21 14:27N 52°28' E 004°35'0 0.0
2015-May-21 13:30N 52°28' E 004°35'0 0.0
2015-May-21 12:33N 52°28' E 004°35'0 0.0
2015-May-21 11:33N 52°28' E 004°35'0 0.0
2015-May-21 10:33N 52°28' E 004°35'0 0.0
2015-May-21 09:30N 52°28' E 004°35'0 0.0
2015-May-21 08:33N 52°28' E 004°35'0 0.0
2015-May-21 07:34N 52°28' E 004°35'1110.8
2015-May-21 06:33N 52°34' E 004°20'1615.6
2015-May-21 05:33N 52°44' E 004°01'2417.2
2015-May-21 04:08N 53°00' E 003°30'11617.3
2015-May-20 21:26N 54°09' E 000°53'1617.9
2015-May-20 20:33N 54°17' E 000°31'1818.1
2015-May-20 19:33N 54°27' E 000°04'1918.6
2015-May-20 18:33N 54°38' W 000°22'2818.9
2015-May-20 17:04N 54°53' W 001°03'918.4
2015-May-20 16:33N 54°58' W 001°17'2 0.2
2015-May-20 07:10N 54°58' W 001°13'1314.4
2015-May-20 06:15N 54°50' W 000°54'1013.7
2015-May-20 05:33N 54°45' W 000°40'1514.9
2015-May-20 04:33N 54°37' W 000°18'1615.7
2015-May-20 03:34N 54°28' E 000°04'1616.4
2015-May-20 02:34N 54°19' E 000°27'15216.9
2015-May-19 17:33N 52°49' E 003°53'2217.4
2015-May-19 16:18N 52°34' E 004°20'1114.4
2015-May-19 15:33N 52°28' E 004°34'0 0.5
2015-May-19 14:31N 52°28' E 004°35'0 0.0
2015-May-19 13:31N 52°28' E 004°35'0 0.0
2015-May-19 12:31N 52°28' E 004°35'0 0.0
2015-May-19 11:31N 52°28' E 004°35'0 0.0
2015-May-19 10:31N 52°28' E 004°35'0 0.0
2015-May-19 09:31N 52°28' E 004°35'0 0.0
2015-May-19 08:31N 52°28' E 004°35'0 0.0
2015-May-19 07:34N 52°28' E 004°35'1110.9
2015-May-19 06:32N 52°34' E 004°20'236215.7
2015-May-19 05:27N 54°53' W 001°03'80 9.6
2015-May-18 21:09N 54°09' E 000°52'1017.8
2015-May-18 20:34N 54°15' E 000°37'1818.0
2015-May-18 19:33N 54°25' E 000°11'1918.6
2015-May-18 18:33N 54°35' W 000°15'1919.3
2015-May-18 17:33N 54°45' W 000°44'1919.1
2015-May-18 16:33N 54°56' W 001°11'  
Track history (hours):
 
Tides and Currents Weather Stations Pressure Air Temp Water Temp Dewpoint Dewpoint Depression Visibility Wind Speed Wind Dir Waves Ship Positions

King of Scandinavia

Ship's website: http://www.dfds.co.uk/DSW/EN/OnBoard/na/KING.htm

Last reported at 2015-May-28 06:32 UTC. Time now 2015-May-28 14:15 UTC.
Position N 54°50' W 000°54'.

Length 166 m; beam 27.6 m; draft 6.2 m.

Type: Passenger vessel. MMSI: 220449000.

Date/timePositionNaut miles runAvg speedWind from/ knotsBaromVisibWave heightAir tempDewpointWater temp
2015-May-28 06:32N 54°50' W 000°54'1918.5
2015-May-28 05:29N 54°40' W 000°27'1718.6
2015-May-28 04:34N 54°30' W 000°02'1918.7
2015-May-28 03:34N 54°20' E 000°25'1818.2
2015-May-28 02:33N 54°10' E 000°51'15715.7
2015-May-27 16:33N 52°34' E 004°19'1211.5
2015-May-27 15:33N 52°28' E 004°35'0 0.0
2015-May-27 14:32N 52°28' E 004°35'0 0.0
2015-May-27 13:32N 52°28' E 004°35'0 0.0
2015-May-27 12:29N 52°28' E 004°35'0 0.0
2015-May-27 11:32N 52°28' E 004°35'0 0.0
2015-May-27 10:29N 52°28' E 004°35'0 0.0
2015-May-27 09:26N 52°28' E 004°35'0 0.0
2015-May-27 08:32N 52°28' E 004°35'0 0.1
2015-May-27 07:34N 52°28' E 004°35'1313.0
2015-May-27 06:32N 52°36' E 004°17'237208.6
2015-May-27 05:23N 54°55' W 001°08'8010.2
2015-May-26 21:33N 54°11' E 000°47'1817.9
2015-May-26 20:33N 54°21' E 000°21'1817.8
2015-May-26 19:33N 54°31' W 000°04'1717.4
2015-May-26 18:33N 54°40' W 000°29'1717.3
2015-May-26 17:33N 54°50' W 000°54'1717.5
2015-May-26 16:33N 54°59' W 001°20'5 0.5
2015-May-26 07:13N 54°57' W 001°12'1217.3
2015-May-26 06:31N 54°50' W 000°54'1817.7
2015-May-26 05:30N 54°41' W 000°29'1718.1
2015-May-26 04:33N 54°31' W 000°04'1818.4
2015-May-26 03:33N 54°21' E 000°22'1818.2
2015-May-26 02:33N 54°11' E 000°49'14015.5
2015-May-25 17:33N 52°47' E 003°57'1414.5
2015-May-25 16:33N 52°38' E 004°14'1414.3
2015-May-25 15:34N 52°28' E 004°32'2 1.9
2015-May-25 14:25N 52°28' E 004°35'0 0.0
2015-May-25 13:31N 52°28' E 004°35'0 0.0
2015-May-25 12:28N 52°28' E 004°35'0 0.0
2015-May-25 11:28N 52°28' E 004°35'0 0.0
2015-May-25 10:28N 52°28' E 004°35'0 0.0
2015-May-25 09:28N 52°28' E 004°35'0 0.0
2015-May-25 08:28N 52°28' E 004°35'0 0.1
2015-May-25 07:33N 52°28' E 004°35'1010.1
2015-May-25 06:33N 52°33' E 004°21'1110.7
2015-May-25 05:34N 52°41' E 004°08'1413.8
2015-May-25 04:33N 52°50' E 003°51'1515.0
2015-May-25 03:33N 52°59' E 003°32'1817.3
2015-May-25 02:32N 53°11' E 003°10'10218.8
2015-May-24 21:06N 54°10' E 000°50'1018.8
2015-May-24 20:33N 54°16' E 000°35'1918.8
2015-May-24 19:34N 54°26' E 000°08'1918.7
2015-May-24 18:33N 54°36' W 000°19'1918.5
2015-May-24 17:33N 54°46' W 000°46'1818.2
2015-May-24 16:32N 54°57' W 001°13'7 1.7
2015-May-24 12:07N 55°01' W 001°22'10 1.7
2015-May-24 06:33N 54°56' W 001°08'1515.3
2015-May-24 05:33N 54°47' W 000°47'1717.4
2015-May-24 04:33N 54°37' W 000°22'1717.1
2015-May-24 03:33N 54°28' E 000°03'2019.6
2015-May-24 02:33N 54°18' E 000°31'15319.1
2015-May-23 18:33N 52°47' E 003°59'1919.5
2015-May-23 17:33N 52°33' E 004°22'10 9.8
2015-May-23 16:33N 52°28' E 004°35'0 0.0
2015-May-23 15:33N 52°28' E 004°35'0 0.0
2015-May-23 14:31N 52°28' E 004°35'0 0.0
2015-May-23 13:31N 52°28' E 004°35'0 0.0
2015-May-23 12:31N 52°28' E 004°35'0 0.0
2015-May-23 11:31N 52°28' E 004°35'0 0.0
2015-May-23 10:31N 52°28' E 004°35'0 0.0
2015-May-23 09:31N 52°28' E 004°35'0 0.0
2015-May-23 08:31N 52°28' E 004°35'0 0.0
2015-May-23 07:33N 52°28' E 004°35'1111.3
2015-May-23 06:33N 52°34' E 004°20'1414.4
2015-May-23 05:33N 52°44' E 004°02'1515.1
2015-May-23 04:32N 52°54' E 003°43'13017.6
2015-May-22 21:11N 54°11' E 000°48'1218.7
2015-May-22 20:33N 54°18' E 000°31'1918.9
2015-May-22 19:33N 54°28' E 000°04'1919.5
2015-May-22 18:33N 54°38' W 000°25'1919.4
2015-May-22 17:33N 54°49' W 000°53'1918.9
2015-May-22 16:32N 54°60' W 001°21'15 1.5
2015-May-22 06:33N 54°52' W 000°58'1414.3
2015-May-22 05:33N 54°45' W 000°36'1514.7
2015-May-22 04:33N 54°36' W 000°16'1717.3
2015-May-22 03:33N 54°26' E 000°08'1818.0
2015-May-22 02:33N 54°16' E 000°34'13316.6
2015-May-21 18:32N 52°58' E 003°37'1515.7
2015-May-21 17:33N 52°48' E 003°55'1615.6
2015-May-21 16:33N 52°38' E 004°14'1515.1
2015-May-21 15:34N 52°28' E 004°33'1 1.1
2015-May-21 14:27N 52°28' E 004°35'0 0.0
2015-May-21 13:30N 52°28' E 004°35'0 0.0
2015-May-21 12:33N 52°28' E 004°35'0 0.0
2015-May-21 11:33N 52°28' E 004°35'0 0.0
2015-May-21 10:33N 52°28' E 004°35'0 0.0
2015-May-21 09:30N 52°28' E 004°35'0 0.0
2015-May-21 08:33N 52°28' E 004°35'0 0.0
2015-May-21 07:34N 52°28' E 004°35'1110.8
2015-May-21 06:33N 52°34' E 004°20'1615.6
2015-May-21 05:33N 52°44' E 004°01'2417.2
2015-May-21 04:08N 53°00' E 003°30'11617.3
2015-May-20 21:26N 54°09' E 000°53'1617.9
2015-May-20 20:33N 54°17' E 000°31'1818.1
2015-May-20 19:33N 54°27' E 000°04'1918.6
2015-May-20 18:33N 54°38' W 000°22'2818.9
2015-May-20 17:04N 54°53' W 001°03'918.4
2015-May-20 16:33N 54°58' W 001°17'2 0.2
2015-May-20 07:10N 54°58' W 001°13'1314.4
2015-May-20 06:15N 54°50' W 000°54'1013.7
2015-May-20 05:33N 54°45' W 000°40'1514.9
2015-May-20 04:33N 54°37' W 000°18'1615.7
2015-May-20 03:34N 54°28' E 000°04'1616.4
2015-May-20 02:34N 54°19' E 000°27'15216.9
2015-May-19 17:33N 52°49' E 003°53'2217.4
2015-May-19 16:18N 52°34' E 004°20'1114.4
2015-May-19 15:33N 52°28' E 004°34'0 0.5
2015-May-19 14:31N 52°28' E 004°35'0 0.0
2015-May-19 13:31N 52°28' E 004°35'0 0.0
2015-May-19 12:31N 52°28' E 004°35'0 0.0
2015-May-19 11:31N 52°28' E 004°35'0 0.0
2015-May-19 10:31N 52°28' E 004°35'0 0.0
2015-May-19 09:31N 52°28' E 004°35'0 0.0
2015-May-19 08:31N 52°28' E 004°35'0 0.0
2015-May-19 07:34N 52°28' E 004°35'1110.9
2015-May-19 06:32N 52°34' E 004°20'236215.7
2015-May-19 05:27N 54°53' W 001°03'80 9.6
2015-May-18 21:09N 54°09' E 000°52'1017.8
2015-May-18 20:34N 54°15' E 000°37'1818.0
2015-May-18 19:33N 54°25' E 000°11'1918.6
2015-May-18 18:33N 54°35' W 000°15'1919.3
2015-May-18 17:33N 54°45' W 000°44'1919.1
2015-May-18 16:33N 54°56' W 001°11'  

Dump ship's entire track history